Due to severe server failure at the provider, not all demo sites are operational. Will take some days to rebuilt everything.

Demonstration site - Click on the  for more information

This is an optional block. Switch it on/off in your settings-file: $SITE['bannerTop'] = false; or $SITE['bannerBottom'] = false;

You can display ads, any other important text or photo’s using text / html or PHP code.

You can place one or more at the top and or bottom and it can all be different for content / size .



Visit our other weather sites:

Template documentation
and downloads

And another site



Nearby METAR Reports

   
EBAW - Antwerp
Updated: 18-02-2019 05:50
Clear  
Clear  
   Wind: SE 5.6 km/h
Wind: SE 5.6 km/h
Temperature: 1°C
Wind Chill: -1°C
Dew Point: -1°C
Humidity: 87%
Barometer: 1018 hPa
Visibility: More than 10 km
Cloud details: Clear ft
EBAW 180450Z AUTO 14003KT CAVOK 01/M01 Q1018
EBLG - Liège
Updated: 18-02-2019 05:50
Clear  
Clear  
   Wind: SSE 14.8 km/h
Wind: SSE 14.8 km/h
Temperature: 8°C
Wind Chill: 6°C
Dew Point: -2°C
Humidity: 50%
Barometer: 1019 hPa
Visibility: More than 10 km
Cloud details: Clear ft
EBLG 180450Z 16008KT CAVOK 08/M02 Q1019 NOSIG
EBCV - Mons/Bergen
Updated: 18-02-2019 05:25
Clear  
Clear  
   Wind: South 7.4 km/h
Wind: South 7.4 km/h
Temperature: 4°C
Wind Chill: 2°C
Dew Point: 0°C
Humidity: 75%
Barometer: 1019 hPa
Clouds: Clear
Visibility: More than 10 km
Cloud details: Clear ft
EBCV 180425Z AUTO 19004KT 9999 NCD 04/M00 Q1019 BLU
EHBK - Maastricht
Updated: 18-02-2019 05:55
Clear  
Clear  
   Wind: SSW 16.7 km/h
Wind: SSW 16.7 km/h
Temperature: 6°C
Wind Chill: 3°C
Dew Point: -1°C
Humidity: 61%
Barometer: 1019 hPa
Clouds: Clear
Visibility: More than 10 km
Cloud details: Clear ft
EHBK 180455Z AUTO 21009KT 9999 NCD 06/M01 Q1019 NOSIG
ELLX - Luxemburg
Updated: 18-02-2019 05:50
Clear  
Clear  
   Wind: South 5.6 km/h
Wind: South 5.6 km/h
Temperature: 4°C
Wind Chill: 3°C
Dew Point: -2°C
Humidity: 65%
Barometer: 1021 hPa
Visibility: More than 10 km
Cloud details: Clear ft
ELLX 180450Z 18003KT CAVOK 04/M02 Q1021 NOSIG
EBOS - Oostende
Updated: 18-02-2019 05:50
Clear  
Clear  
   Wind: South 7.4 km/h
Wind: South 7.4 km/h
Temperature: 2°C
Wind Chill: 0°C
Dew Point: 0°C
Humidity: 87%
Barometer: 1018 hPa
Visibility: More than 10 km
Cloud details: Clear ft
EBOS 180450Z 18004KT CAVOK 02/M00 Q1018 NOSIG

Script developed by  Saratoga-weather.org Adapted for the template by  Weerstation Leuven

This is an optional block. Switch it on/off in your settings-file: $SITE['bannerTop'] = false; or $SITE['bannerBottom'] = false;

You can display ads, any other important text or photo’s using text / html or PHP code.

You can place one or more at the top and or bottom and it can all be different for content / size .